createdAt,value
2022-09-07T00:00:45.118Z,1.17
2022-09-07T00:01:48.267Z,1.12
2022-09-07T00:02:51.581Z,0.84
2022-09-07T00:03:56.027Z,1.24
2022-09-07T00:04:59.324Z,1.18
2022-09-07T00:06:05.697Z,1.15
2022-09-07T00:07:08.904Z,1.23
2022-09-07T00:08:12.672Z,1.16
2022-09-07T00:09:15.906Z,0.86
2022-09-07T00:10:19.745Z,1.29
2022-09-07T00:11:22.955Z,1.19
2022-09-07T00:12:26.127Z,1.16
2022-09-07T00:13:32.263Z,1.36
2022-09-07T00:14:35.448Z,1.02
2022-09-07T00:15:39.884Z,1.14
2022-09-07T00:16:43.138Z,1.22
2022-09-07T00:17:46.777Z,1.27
2022-09-07T00:18:50.027Z,1.17
2022-09-07T00:19:54.792Z,1.35
2022-09-07T00:21:02.895Z,1.00
2022-09-07T00:22:06.160Z,1.05
2022-09-07T00:23:09.351Z,1.21
2022-09-07T00:24:12.984Z,1.07
2022-09-07T00:25:16.319Z,0.96
2022-09-07T00:26:28.829Z,1.12
2022-09-07T00:27:32.164Z,1.07
2022-09-07T00:28:36.532Z,1.09
2022-09-07T00:29:39.730Z,1.06
2022-09-07T00:30:43.046Z,1.11
2022-09-07T00:31:46.340Z,1.40
2022-09-07T00:32:49.615Z,1.31
2022-09-07T00:33:54.139Z,1.27
2022-09-07T00:34:57.308Z,1.15
2022-09-07T00:36:00.439Z,1.19
2022-09-07T00:37:03.667Z,1.16
2022-09-07T00:38:06.902Z,1.19
2022-09-07T00:39:10.047Z,1.24
2022-09-07T00:40:13.627Z,0.97
2022-09-07T00:41:19.113Z,1.13
2022-09-07T00:42:22.754Z,1.13
2022-09-07T00:43:32.190Z,1.06
2022-09-07T00:44:48.167Z,0.99
2022-09-07T00:45:51.347Z,1.17
2022-09-07T00:46:54.594Z,1.05
2022-09-07T00:48:10.500Z,1.30
2022-09-07T00:49:17.165Z,1.22
2022-09-07T00:50:23.973Z,1.21
2022-09-07T00:51:30.809Z,0.90
2022-09-07T00:52:36.262Z,1.33
2022-09-07T00:55:17.493Z,1.46
2022-09-07T00:56:23.630Z,1.16
2022-09-07T00:57:27.718Z,1.31
2022-09-07T00:58:31.356Z,1.23
2022-09-07T00:59:38.633Z,1.26
2022-09-07T01:00:44.358Z,1.06
2022-09-07T01:01:47.873Z,1.12
2022-09-07T01:02:54.791Z,1.47
2022-09-07T01:03:59.708Z,1.28
2022-09-07T01:05:09.500Z,1.32
2022-09-07T01:06:21.581Z,1.18
2022-09-07T01:07:24.861Z,1.14
2022-09-07T01:08:29.073Z,1.32
2022-09-07T01:09:32.943Z,1.22
2022-09-07T01:10:37.185Z,1.22
2022-09-07T01:11:40.645Z,1.10
2022-09-07T01:12:43.785Z,1.21
2022-09-07T01:13:48.761Z,1.22
2022-09-07T01:14:54.103Z,1.21
2022-09-07T01:16:26.672Z,1.34
2022-09-07T01:17:51.272Z,1.26
2022-09-07T01:19:04.074Z,1.22
2022-09-07T01:20:30.383Z,1.18
2022-09-07T01:21:52.913Z,1.39
2022-09-07T01:23:17.834Z,1.22
2022-09-07T01:24:45.575Z,1.26
2022-09-07T01:26:16.140Z,1.27
2022-09-07T01:27:47.173Z,1.47
2022-09-07T01:30:10.564Z,1.41
2022-09-07T01:31:33.830Z,1.37
2022-09-07T01:33:04.846Z,1.34
2022-09-07T01:35:22.322Z,1.18
2022-09-07T01:36:29.420Z,1.22
2022-09-07T01:37:45.068Z,1.28
2022-09-07T01:38:52.555Z,1.26
2022-09-07T01:40:08.305Z,1.21
2022-09-07T01:41:36.294Z,1.39
2022-09-07T01:44:12.449Z,1.56
2022-09-07T01:45:18.880Z,1.28
2022-09-07T01:46:31.983Z,1.38
2022-09-07T01:47:38.780Z,1.25
2022-09-07T01:48:44.505Z,1.64
2022-09-07T01:49:53.897Z,1.59
2022-09-07T01:51:00.949Z,1.51
2022-09-07T01:52:07.630Z,1.52
2022-09-07T01:53:20.274Z,1.68
2022-09-07T01:54:35.418Z,1.66
2022-09-07T01:55:44.974Z,1.57
2022-09-07T01:56:51.058Z,1.69
2022-09-07T01:58:03.998Z,1.61
2022-09-07T01:59:10.687Z,1.73
2022-09-07T02:00:17.259Z,1.22
2022-09-07T02:01:41.029Z,1.45
2022-09-07T02:02:59.892Z,1.54
2022-09-07T02:04:06.845Z,1.76
2022-09-07T02:05:16.562Z,1.59
2022-09-07T02:07:28.953Z,1.38
2022-09-07T02:08:35.615Z,1.64
2022-09-07T02:09:51.288Z,1.42
2022-09-07T02:10:59.888Z,1.78
2022-09-07T02:12:06.651Z,1.58
2022-09-07T02:13:16.151Z,1.76
2022-09-07T02:14:37.695Z,1.91
2022-09-07T02:15:56.220Z,1.79
2022-09-07T02:17:08.978Z,1.86
2022-09-07T02:18:16.290Z,1.92
2022-09-07T02:19:21.925Z,2.23
2022-09-07T02:20:29.100Z,2.04
2022-09-07T02:21:35.769Z,2.02
2022-09-07T02:22:42.459Z,1.96
2022-09-07T02:23:54.938Z,1.99
2022-09-07T02:25:01.350Z,2.12
2022-09-07T02:26:08.218Z,1.92
2022-09-07T02:27:17.860Z,1.89
2022-09-07T02:28:24.561Z,2.15
2022-09-07T02:29:30.874Z,2.28
2022-09-07T02:30:33.164Z,1.98
2022-09-07T02:31:36.281Z,1.98
2022-09-07T02:32:39.400Z,2.11
2022-09-07T02:33:42.662Z,1.95
2022-09-07T02:34:45.870Z,2.14
2022-09-07T02:35:49.401Z,1.87
2022-09-07T02:36:54.152Z,2.00
2022-09-07T02:38:00.065Z,1.91
2022-09-07T02:39:03.483Z,1.94
2022-09-07T02:40:08.382Z,2.04
2022-09-07T02:41:32.678Z,1.97
2022-09-07T02:42:38.006Z,2.07
2022-09-07T02:43:41.169Z,2.03
2022-09-07T02:44:46.103Z,1.70
2022-09-07T02:46:12.552Z,1.98
2022-09-07T02:47:28.335Z,2.04
2022-09-07T02:48:40.772Z,1.78
2022-09-07T02:50:05.783Z,1.77
2022-09-07T02:51:12.574Z,2.26
2022-09-07T02:52:38.941Z,1.91
2022-09-07T02:54:14.207Z,1.66
2022-09-07T02:55:26.613Z,1.69
2022-09-07T02:56:36.068Z,1.80
2022-09-07T02:57:48.525Z,2.16
2022-09-07T02:59:13.499Z,1.97
2022-09-07T03:00:21.268Z,1.70
2022-09-07T03:01:31.080Z,1.92
2022-09-07T03:02:56.144Z,1.72
2022-09-07T03:04:30.249Z,1.83
2022-09-07T03:06:56.886Z,2.83
2022-09-07T03:08:12.359Z,2.53
2022-09-07T03:09:19.042Z,2.49
2022-09-07T03:10:23.980Z,3.11
2022-09-07T03:11:29.095Z,2.96
2022-09-07T03:12:47.008Z,2.76
2022-09-07T03:13:50.990Z,2.49
2022-09-07T03:14:54.283Z,2.64
2022-09-07T03:15:57.558Z,3.02
2022-09-07T03:17:01.736Z,2.71
2022-09-07T03:18:05.021Z,2.24
2022-09-07T03:19:08.263Z,2.54
2022-09-07T03:20:12.081Z,2.86
2022-09-07T03:21:15.260Z,2.27
2022-09-07T03:22:18.372Z,2.51
2022-09-07T03:23:21.786Z,2.34
2022-09-07T03:24:24.910Z,2.06
2022-09-07T03:25:28.126Z,2.26
2022-09-07T03:26:31.451Z,2.22
2022-09-07T03:27:34.883Z,2.31
2022-09-07T03:28:38.152Z,1.89
2022-09-07T03:29:42.157Z,1.94
2022-09-07T03:30:47.635Z,1.75
2022-09-07T03:31:50.990Z,2.11
2022-09-07T03:32:54.111Z,1.76
2022-09-07T03:33:57.227Z,1.71
2022-09-07T03:35:01.545Z,1.73
2022-09-07T03:36:05.854Z,1.85
2022-09-07T03:37:09.260Z,1.73
2022-09-07T03:38:12.562Z,1.95
2022-09-07T03:39:15.689Z,1.76
2022-09-07T03:40:20.597Z,1.83
2022-09-07T03:41:23.731Z,1.66
2022-09-07T03:42:26.932Z,2.04
2022-09-07T03:43:30.851Z,2.14
2022-09-07T03:44:33.965Z,1.52
2022-09-07T03:45:37.212Z,1.86
2022-09-07T03:46:40.514Z,1.62
2022-09-07T03:47:43.791Z,1.91
2022-09-07T03:48:48.210Z,1.84
2022-09-07T03:49:52.972Z,1.80
2022-09-07T03:51:05.429Z,1.94
2022-09-07T03:52:08.859Z,2.01
2022-09-07T03:53:11.980Z,1.77
2022-09-07T03:54:15.095Z,2.08
2022-09-07T03:55:18.186Z,1.97
2022-09-07T03:56:22.884Z,2.11
2022-09-07T03:57:26.008Z,2.01
2022-09-07T03:58:30.709Z,2.08
2022-09-07T03:59:34.318Z,1.95
2022-09-07T04:00:41.004Z,2.09
2022-09-07T04:01:44.331Z,1.78
2022-09-07T04:02:47.565Z,1.98
2022-09-07T04:03:51.637Z,2.21
2022-09-07T04:04:54.751Z,2.23
2022-09-07T04:06:01.811Z,2.16
2022-09-07T04:07:06.202Z,1.94
2022-09-07T04:08:09.323Z,2.12
2022-09-07T04:09:13.922Z,1.62
2022-09-07T04:10:17.380Z,1.83
2022-09-07T04:11:20.473Z,2.17
2022-09-07T04:12:25.485Z,2.34
2022-09-07T04:13:30.134Z,1.98
2022-09-07T04:14:33.246Z,2.14
2022-09-07T04:15:36.643Z,2.08
2022-09-07T04:16:40.288Z,2.18
2022-09-07T04:17:43.555Z,2.04
2022-09-07T04:18:46.862Z,2.34
2022-09-07T04:19:49.974Z,2.17
2022-09-07T04:20:53.175Z,2.23
2022-09-07T04:21:56.412Z,2.18
2022-09-07T04:22:59.642Z,2.18
2022-09-07T04:24:03.209Z,2.06
2022-09-07T04:25:06.602Z,2.07
2022-09-07T04:26:15.389Z,2.44
2022-09-07T04:27:18.500Z,2.08
2022-09-07T04:28:21.587Z,2.08
2022-09-07T04:29:24.698Z,2.08
2022-09-07T04:30:28.865Z,2.32
2022-09-07T04:31:33.720Z,1.99
2022-09-07T04:32:36.840Z,2.26
2022-09-07T04:33:39.949Z,2.11
2022-09-07T04:34:43.047Z,1.94
2022-09-07T04:35:46.221Z,2.31
2022-09-07T04:36:49.420Z,2.11
2022-09-07T04:37:52.539Z,2.01
2022-09-07T04:38:57.660Z,2.69
2022-09-07T04:40:00.824Z,2.44
2022-09-07T04:41:07.753Z,2.36
2022-09-07T04:42:10.891Z,2.52
2022-09-07T04:43:14.141Z,2.16
2022-09-07T04:44:17.368Z,2.26
2022-09-07T04:45:20.577Z,2.58
2022-09-07T04:46:27.359Z,2.77
2022-09-07T04:47:31.175Z,2.31
2022-09-07T04:48:34.802Z,2.09
2022-09-07T04:49:37.917Z,2.43
2022-09-07T04:50:41.156Z,2.30
2022-09-07T04:51:44.303Z,2.46
2022-09-07T04:52:47.495Z,2.25
2022-09-07T04:53:52.242Z,2.42
2022-09-07T04:54:55.376Z,2.16
2022-09-07T04:55:58.802Z,2.47
2022-09-07T04:57:02.244Z,2.69
2022-09-07T04:58:05.475Z,2.50
2022-09-07T04:59:08.608Z,2.61
2022-09-07T05:00:12.509Z,2.55
2022-09-07T05:01:18.643Z,2.47
2022-09-07T05:02:21.965Z,2.41
2022-09-07T05:03:25.218Z,2.47
2022-09-07T05:04:28.557Z,2.62
2022-09-07T05:05:31.791Z,2.72
2022-09-07T05:06:35.117Z,2.83
2022-09-07T05:07:38.258Z,3.13
2022-09-07T05:08:43.772Z,3.11
2022-09-07T05:09:47.107Z,2.54
2022-09-07T05:10:51.723Z,2.92
2022-09-07T05:11:54.958Z,3.25
2022-09-07T05:12:58.237Z,3.08
2022-09-07T05:14:03.569Z,2.87
2022-09-07T05:15:07.140Z,2.86
2022-09-07T05:16:13.750Z,2.78
2022-09-07T05:17:18.512Z,2.72
2022-09-07T05:18:21.644Z,3.04
2022-09-07T05:19:24.759Z,2.99
2022-09-07T05:20:28.899Z,2.97
2022-09-07T05:21:33.520Z,2.68
2022-09-07T05:22:38.538Z,3.27
2022-09-07T05:23:42.803Z,3.07
2022-09-07T05:24:47.125Z,2.95
2022-09-07T05:25:50.245Z,3.39
2022-09-07T05:26:53.681Z,3.01
2022-09-07T05:27:57.080Z,2.65
2022-09-07T05:30:08.237Z,3.34
2022-09-07T05:31:17.322Z,2.84
2022-09-07T05:32:21.223Z,2.76
2022-09-07T05:34:30.085Z,2.96
2022-09-07T05:35:34.140Z,3.01
2022-09-07T05:36:37.659Z,3.33
2022-09-07T05:37:41.006Z,2.90
2022-09-07T05:38:44.110Z,3.09
2022-09-07T05:39:47.629Z,2.67
2022-09-07T05:40:51.158Z,2.92
2022-09-07T05:41:54.259Z,2.98
2022-09-07T05:42:57.353Z,2.90
2022-09-07T05:45:06.561Z,2.88
2022-09-07T05:46:11.208Z,4.42
2022-09-07T05:47:14.404Z,4.54
2022-09-07T05:48:17.532Z,3.33
2022-09-07T05:49:21.139Z,3.34
2022-09-07T05:50:25.496Z,3.02
2022-09-07T05:51:28.816Z,2.90
2022-09-07T05:52:31.916Z,3.11
2022-09-07T05:53:36.415Z,2.92
2022-09-07T05:54:39.628Z,3.32
2022-09-07T05:55:42.797Z,2.99
2022-09-07T05:56:46.005Z,3.39
2022-09-07T05:57:49.111Z,2.89
2022-09-07T05:58:52.206Z,3.35
2022-09-07T05:59:55.293Z,3.24
2022-09-07T06:01:05.712Z,3.67
2022-09-07T06:02:14.564Z,2.90
2022-09-07T06:03:17.935Z,3.82
2022-09-07T06:04:22.175Z,3.38
2022-09-07T06:05:25.351Z,3.24
2022-09-07T06:06:28.739Z,3.56
2022-09-07T06:07:31.851Z,3.08
2022-09-07T06:08:36.793Z,3.13
2022-09-07T06:10:45.964Z,3.28
2022-09-07T06:11:49.526Z,3.28
2022-09-07T06:12:53.051Z,3.35
2022-09-07T06:13:56.192Z,3.04
2022-09-07T06:15:00.934Z,3.26
2022-09-07T06:16:06.513Z,3.59
2022-09-07T06:17:09.750Z,3.34
2022-09-07T06:18:12.891Z,3.61
2022-09-07T06:19:16.136Z,3.41
2022-09-07T06:20:20.481Z,2.97
2022-09-07T06:21:23.817Z,3.16
2022-09-07T06:22:30.782Z,2.98
2022-09-07T06:23:36.907Z,3.34
2022-09-07T06:24:40.084Z,3.28
2022-09-07T06:25:49.410Z,3.68
2022-09-07T06:26:52.694Z,3.06
2022-09-07T06:27:55.809Z,3.09
2022-09-07T06:28:59.215Z,3.27
2022-09-07T06:30:02.371Z,3.11
2022-09-07T06:31:13.923Z,4.01
2022-09-07T06:33:22.425Z,3.23
2022-09-07T06:34:25.898Z,3.37
2022-09-07T06:35:29.082Z,3.52
2022-09-07T06:36:32.520Z,2.94
2022-09-07T06:37:35.643Z,2.67
2022-09-07T06:38:39.394Z,2.18
2022-09-07T06:39:42.622Z,2.34
2022-09-07T06:40:45.916Z,2.15
2022-09-07T06:42:04.389Z,2.21
2022-09-07T06:42:55.876Z,1.94
2022-09-07T06:43:59.009Z,1.72
2022-09-07T06:45:02.234Z,2.09
2022-09-07T06:47:11.559Z,1.79
2022-09-07T06:48:14.675Z,1.74
2022-09-07T06:49:17.841Z,1.44
2022-09-07T06:50:21.957Z,1.51
2022-09-07T06:51:26.870Z,1.95
2022-09-07T06:52:30.137Z,1.40
2022-09-07T06:53:38.575Z,1.27
2022-09-07T06:55:47.517Z,1.21
2022-09-07T06:56:50.868Z,1.37
2022-09-07T06:57:54.284Z,1.26
2022-09-07T06:58:58.128Z,1.12
2022-09-07T07:00:01.261Z,1.12
2022-09-07T07:01:09.591Z,1.14
2022-09-07T07:02:15.773Z,0.96
2022-09-07T07:03:19.232Z,1.32
2022-09-07T07:04:22.547Z,1.17
2022-09-07T07:05:25.689Z,1.04
2022-09-07T07:06:37.428Z,1.26
2022-09-07T07:07:40.564Z,1.12
2022-09-07T07:08:43.674Z,1.10
2022-09-07T07:09:48.611Z,0.70
2022-09-07T07:10:52.369Z,0.81
2022-09-07T07:11:57.314Z,0.83
2022-09-07T07:13:00.430Z,0.95
2022-09-07T07:14:03.946Z,0.82
2022-09-07T07:15:08.402Z,0.80
2022-09-07T07:16:16.591Z,0.82
2022-09-07T07:17:19.800Z,0.93
2022-09-07T07:18:22.980Z,0.87
2022-09-07T07:19:26.788Z,0.64
2022-09-07T07:20:30.262Z,0.76
2022-09-07T07:21:48.556Z,0.63
2022-09-07T07:22:47.060Z,0.79
2022-09-07T07:23:45.576Z,0.71
2022-09-07T07:24:48.821Z,0.77
2022-09-07T07:25:53.743Z,0.87
2022-09-07T07:26:57.151Z,0.68
2022-09-07T07:29:05.547Z,0.64
2022-09-07T07:30:09.525Z,0.59
2022-09-07T07:31:13.463Z,0.59
2022-09-07T07:32:16.643Z,0.61
2022-09-07T07:33:19.765Z,0.64
2022-09-07T07:34:23.072Z,0.65
2022-09-07T07:35:26.390Z,0.59
2022-09-07T07:36:30.408Z,0.49
2022-09-07T07:37:33.693Z,0.59
2022-09-07T07:42:03.242Z,0.42
2022-09-07T07:43:05.723Z,0.69
2022-09-07T07:44:10.342Z,0.64
2022-09-07T07:46:20.822Z,0.62
2022-09-07T07:47:24.153Z,0.59
2022-09-07T07:48:27.563Z,0.88
2022-09-07T07:49:30.657Z,0.80
2022-09-07T07:50:34.482Z,0.75
2022-09-07T07:53:39.587Z,0.60
2022-09-07T07:53:48.389Z,0.85
2022-09-07T07:54:51.525Z,0.49
2022-09-07T07:55:57.585Z,0.60
2022-09-07T07:57:00.811Z,0.71
2022-09-07T07:58:03.904Z,0.86
2022-09-07T07:59:06.994Z,0.71
2022-09-07T08:00:12.342Z,0.86
2022-09-07T08:01:17.008Z,0.74
2022-09-07T08:02:20.399Z,0.52
2022-09-07T08:03:24.266Z,0.73
2022-09-07T08:04:27.616Z,0.78
2022-09-07T08:05:30.820Z,0.90
2022-09-07T08:06:34.101Z,0.80
2022-09-07T08:07:37.472Z,1.00
2022-09-07T08:08:41.271Z,0.86
2022-09-07T08:09:45.869Z,0.82
2022-09-07T08:10:49.517Z,1.21
2022-09-07T08:11:53.187Z,0.87
2022-09-07T08:12:56.678Z,1.22
2022-09-07T08:14:01.601Z,0.86
2022-09-07T08:15:05.575Z,0.78
2022-09-07T08:16:10.464Z,0.71
2022-09-07T08:17:15.745Z,0.77
2022-09-07T08:18:18.852Z,0.89
2022-09-07T08:19:21.819Z,0.84
2022-09-07T08:20:26.002Z,0.88
2022-09-07T08:21:29.244Z,0.59
2022-09-07T08:22:34.862Z,0.92
2022-09-07T08:23:38.169Z,1.24
2022-09-07T08:24:41.334Z,1.44
2022-09-07T08:25:52.383Z,1.57
2022-09-07T08:26:55.476Z,1.43
2022-09-07T08:27:58.452Z,0.68
2022-09-07T08:29:01.481Z,0.92
2022-09-07T08:30:05.432Z,0.76
2022-09-07T08:31:11.226Z,0.77
2022-09-07T08:32:14.327Z,0.88
2022-09-07T08:33:17.389Z,0.58
2022-09-07T08:34:21.285Z,1.01
2022-09-07T08:35:24.332Z,0.74
2022-09-07T08:36:28.234Z,0.90
2022-09-07T08:37:31.289Z,1.14
2022-09-07T08:38:35.863Z,1.14
2022-09-07T08:39:38.876Z,0.88
2022-09-07T08:40:42.161Z,0.84
2022-09-07T08:41:48.748Z,0.81
2022-09-07T08:43:16.334Z,0.87
2022-09-07T08:44:26.115Z,0.79
2022-09-07T08:45:32.783Z,1.08
2022-09-07T08:46:42.256Z,0.68
2022-09-07T08:47:51.325Z,0.78
2022-09-07T08:48:56.676Z,0.58
2022-09-07T08:50:12.384Z,0.71
2022-09-07T08:51:24.310Z,0.58
2022-09-07T08:52:30.502Z,0.64
2022-09-07T08:53:37.040Z,0.63
2022-09-07T08:54:43.687Z,0.62
2022-09-07T08:55:53.096Z,0.89
2022-09-07T08:58:27.086Z,0.74
2022-09-07T08:59:28.372Z,0.70
2022-09-07T09:00:31.474Z,0.71
2022-09-07T09:01:40.931Z,0.64
2022-09-07T09:02:45.635Z,0.64
2022-09-07T09:06:30.651Z,0.85
2022-09-07T09:07:43.096Z,0.81
2022-09-07T09:09:06.074Z,0.64
2022-09-07T09:10:33.997Z,0.54
2022-09-07T09:11:58.117Z,0.56
2022-09-07T09:13:19.699Z,0.50
2022-09-07T09:15:46.132Z,0.41
2022-09-07T09:16:55.989Z,0.54
2022-09-07T09:18:05.332Z,0.72
2022-09-07T09:19:26.851Z,0.54
2022-09-07T09:20:52.135Z,0.57
2022-09-07T09:22:01.832Z,0.50
2022-09-07T09:23:08.446Z,0.46
2022-09-07T09:24:19.106Z,0.39
2022-09-07T09:25:28.577Z,0.54
2022-09-07T09:26:33.755Z,0.52
2022-09-07T09:27:36.871Z,0.53
2022-09-07T09:28:39.921Z,0.38
2022-09-07T09:29:43.095Z,0.66
2022-09-07T09:30:49.784Z,0.44
2022-09-07T09:31:53.019Z,0.48
2022-09-07T09:33:20.318Z,0.50
2022-09-07T09:34:25.496Z,0.43
2022-09-07T09:35:34.883Z,0.46
2022-09-07T09:36:52.980Z,0.49
2022-09-07T09:37:57.175Z,0.47
2022-09-07T09:39:00.740Z,0.64
2022-09-07T09:40:06.474Z,0.68
2022-09-07T09:41:12.022Z,0.45
2022-09-07T09:42:17.898Z,0.42
2022-09-07T09:43:23.746Z,0.56
2022-09-07T09:44:30.530Z,0.69
2022-09-07T09:46:47.008Z,0.80
2022-09-07T09:47:53.591Z,0.60
2022-09-07T09:48:59.554Z,0.88
2022-09-07T09:50:08.942Z,0.82
2022-09-07T09:52:32.841Z,0.92
2022-09-07T09:53:32.150Z,0.79
2022-09-07T09:54:43.570Z,0.88
2022-09-07T09:55:50.354Z,0.93
2022-09-07T09:56:53.858Z,0.62
2022-09-07T10:00:30.280Z,0.88
2022-09-07T10:01:34.366Z,0.86
2022-09-07T10:03:59.723Z,0.68
2022-09-07T10:04:47.263Z,0.92
2022-09-07T10:05:50.527Z,0.94
2022-09-07T10:06:59.747Z,0.69
2022-09-07T10:08:04.817Z,0.77
2022-09-07T10:09:11.342Z,0.65
2022-09-07T10:10:16.412Z,0.81
2022-09-07T10:11:21.286Z,1.01
2022-09-07T10:12:31.590Z,0.51
2022-09-07T10:13:37.936Z,0.47
2022-09-07T10:14:46.213Z,0.51
2022-09-07T10:15:55.336Z,0.82
2022-09-07T10:17:00.184Z,0.78
2022-09-07T10:18:06.314Z,0.62
2022-09-07T10:19:29.251Z,0.42
2022-09-07T10:20:37.688Z,0.56
2022-09-07T10:21:44.312Z,0.46
2022-09-07T10:22:57.468Z,0.57
2022-09-07T10:24:06.712Z,0.35
2022-09-07T10:25:30.256Z,0.40
2022-09-07T10:26:36.941Z,0.77
2022-09-07T10:27:40.397Z,0.44
2022-09-07T10:29:48.464Z,0.56
2022-09-07T10:31:12.307Z,0.49
2022-09-07T10:32:45.367Z,0.72
2022-09-07T10:35:15.815Z,0.55
2022-09-07T10:36:39.345Z,0.42
2022-09-07T10:37:45.968Z,0.39
2022-09-07T10:38:52.570Z,0.62
2022-09-07T10:40:11.719Z,0.58
2022-09-07T10:41:18.291Z,0.46
2022-09-07T10:42:30.516Z,0.67
2022-09-07T10:43:45.256Z,0.72
2022-09-07T10:44:51.961Z,0.51
2022-09-07T10:47:45.875Z,0.36
2022-09-07T10:49:01.185Z,0.62
2022-09-07T10:50:33.366Z,0.58
2022-09-07T10:51:40.001Z,0.63
2022-09-07T10:53:09.584Z,0.62
2022-09-07T10:54:30.747Z,0.52
2022-09-07T10:55:35.808Z,0.48
2022-09-07T10:56:45.607Z,0.42
2022-09-07T10:57:52.384Z,0.43
2022-09-07T10:59:21.190Z,0.52
2022-09-07T11:00:25.273Z,0.58
2022-09-07T11:01:40.696Z,0.24
2022-09-07T11:04:28.907Z,0.51
2022-09-07T11:05:38.627Z,0.49
2022-09-07T11:06:44.863Z,0.40
2022-09-07T11:07:57.161Z,0.44
2022-09-07T11:09:29.305Z,0.64
2022-09-07T11:10:57.267Z,0.61
2022-09-07T11:12:04.960Z,0.58
2022-09-07T11:13:11.615Z,0.45
2022-09-07T11:14:17.980Z,0.53
2022-09-07T11:15:45.663Z,0.52
2022-09-07T11:16:55.273Z,0.62
2022-09-07T11:18:07.837Z,0.36
2022-09-07T11:20:39.661Z,0.77
2022-09-07T11:22:01.562Z,0.50
2022-09-07T11:23:03.685Z,0.40
2022-09-07T11:24:25.216Z,0.56
2022-09-07T11:25:40.511Z,0.51
2022-09-07T11:26:50.052Z,0.69
2022-09-07T11:27:59.440Z,0.68
2022-09-07T11:29:30.363Z,0.58
2022-09-07T11:30:30.714Z,0.61
2022-09-07T11:31:40.346Z,0.85
2022-09-07T11:35:21.068Z,0.64
2022-09-07T11:36:29.205Z,0.72
2022-09-07T11:37:41.426Z,0.82
2022-09-07T11:38:50.904Z,0.73
2022-09-07T11:40:15.415Z,0.62
2022-09-07T11:41:25.268Z,0.52
2022-09-07T11:42:43.516Z,0.59
2022-09-07T11:43:44.058Z,0.56
2022-09-07T11:46:19.765Z,0.71
2022-09-07T11:47:26.537Z,0.60
2022-09-07T11:48:54.034Z,0.70
2022-09-07T11:49:59.288Z,0.69
2022-09-07T11:51:05.929Z,0.70
2022-09-07T11:52:12.648Z,0.71
2022-09-07T11:53:22.091Z,0.64
2022-09-07T11:54:28.806Z,0.80
2022-09-07T11:55:35.485Z,0.61
2022-09-07T11:56:45.694Z,0.58
2022-09-07T11:58:09.187Z,1.88
2022-09-07T11:59:37.109Z,2.52
2022-09-07T12:00:46.807Z,2.28
2022-09-07T12:01:56.592Z,1.14
2022-09-07T12:03:27.612Z,0.70
2022-09-07T12:04:43.403Z,0.62
2022-09-07T12:05:50.047Z,0.68
2022-09-07T12:07:00.097Z,0.71
2022-09-07T12:08:21.797Z,0.55
2022-09-07T12:09:43.232Z,0.51
2022-09-07T12:11:06.453Z,0.50
2022-09-07T12:12:17.066Z,0.66
2022-09-07T12:13:43.251Z,0.61
2022-09-07T12:14:55.644Z,0.40
2022-09-07T12:16:21.676Z,0.53
2022-09-07T12:17:53.988Z,0.51
2022-09-07T12:19:18.395Z,0.63
2022-09-07T12:20:27.883Z,0.69
2022-09-07T12:21:37.558Z,0.73
2022-09-07T12:23:03.667Z,0.73
2022-09-07T12:24:03.636Z,0.76
2022-09-07T12:25:12.011Z,0.76
2022-09-07T12:26:36.699Z,0.73
2022-09-07T12:27:39.856Z,0.58
2022-09-07T12:28:52.167Z,0.64
2022-09-07T12:30:04.725Z,0.56
2022-09-07T12:31:11.890Z,0.62
2022-09-07T12:32:58.225Z,0.64
2022-09-07T12:34:33.189Z,0.48
2022-09-07T12:35:40.311Z,0.67
2022-09-07T12:36:50.841Z,0.58
2022-09-07T12:37:55.311Z,0.89
2022-09-07T12:39:20.135Z,0.74
2022-09-07T12:40:37.571Z,0.68
2022-09-07T12:41:47.338Z,0.63
2022-09-07T12:43:10.830Z,0.57
2022-09-07T12:44:29.080Z,0.68
2022-09-07T12:45:32.641Z,0.83
2022-09-07T12:46:39.361Z,0.72
2022-09-07T12:47:42.300Z,0.43
2022-09-07T12:48:57.863Z,0.50
2022-09-07T12:52:47.253Z,0.63
2022-09-07T12:54:20.852Z,0.51
2022-09-07T12:57:29.169Z,0.73
2022-09-07T12:58:14.731Z,0.56
2022-09-07T12:59:36.523Z,0.50
2022-09-07T13:00:55.018Z,0.57
2022-09-07T13:02:01.802Z,0.57
2022-09-07T13:04:52.577Z,0.48
2022-09-07T13:07:45.896Z,0.41
2022-09-07T13:08:52.408Z,0.62
2022-09-07T13:10:00.988Z,0.43
2022-09-07T13:11:22.884Z,0.68
2022-09-07T13:14:39.143Z,0.64
2022-09-07T13:15:50.517Z,0.70
2022-09-07T13:17:29.355Z,0.61
2022-09-07T13:18:38.663Z,0.47
2022-09-07T13:19:54.441Z,0.70
2022-09-07T13:21:11.484Z,0.37
2022-09-07T13:22:36.389Z,0.69
2022-09-07T13:23:46.443Z,0.47
2022-09-07T13:24:52.076Z,0.43
2022-09-07T13:25:56.922Z,0.49
2022-09-07T13:27:07.679Z,0.60
2022-09-07T13:28:29.500Z,0.81
2022-09-07T13:29:42.141Z,0.62
2022-09-07T13:30:52.989Z,0.70
2022-09-07T13:32:11.748Z,0.63
2022-09-07T13:33:27.521Z,0.70
2022-09-07T13:34:37.232Z,0.49
2022-09-07T13:35:43.723Z,0.48
2022-09-07T13:36:50.229Z,0.61
2022-09-07T13:37:59.661Z,0.67
2022-09-07T13:39:09.036Z,0.59
2022-09-07T13:40:17.405Z,0.44
2022-09-07T13:41:25.444Z,0.62
2022-09-07T13:42:31.386Z,0.80
2022-09-07T13:43:34.540Z,0.77
2022-09-07T13:44:38.818Z,0.69
2022-09-07T13:45:57.124Z,0.66
2022-09-07T13:50:27.696Z,0.61
2022-09-07T13:51:50.541Z,0.53
2022-09-07T13:53:09.056Z,0.58
2022-09-07T13:54:33.450Z,0.58
2022-09-07T13:56:14.530Z,0.46
2022-09-07T13:58:31.229Z,0.46
2022-09-07T13:59:34.965Z,0.36
2022-09-07T14:00:51.594Z,0.51
2022-09-07T14:01:55.640Z,0.43
2022-09-07T14:03:02.104Z,0.51
2022-09-07T14:04:10.603Z,0.41
2022-09-07T14:05:17.992Z,0.45
2022-09-07T14:06:25.213Z,0.37
2022-09-07T14:07:31.164Z,0.52
2022-09-07T14:08:39.235Z,0.59
2022-09-07T14:09:38.986Z,0.40
2022-09-07T14:10:48.006Z,0.40
2022-09-07T14:11:53.761Z,0.43
2022-09-07T14:13:09.361Z,0.49
2022-09-07T14:14:21.210Z,0.48
2022-09-07T14:15:31.742Z,0.63
2022-09-07T14:17:39.686Z,0.68
2022-09-07T14:18:44.456Z,0.42
2022-09-07T14:19:51.735Z,0.44
2022-09-07T14:20:55.857Z,0.63
2022-09-07T14:22:04.860Z,0.99
2022-09-07T14:23:28.594Z,0.60
2022-09-07T14:24:35.159Z,0.52
2022-09-07T14:26:47.509Z,0.50
2022-09-07T14:27:50.613Z,0.84
2022-09-07T14:28:56.938Z,0.40
2022-09-07T14:30:24.641Z,0.61
2022-09-07T14:31:28.325Z,0.45
2022-09-07T14:32:32.152Z,0.40
2022-09-07T14:33:35.200Z,0.42
2022-09-07T14:34:39.012Z,0.49
2022-09-07T14:35:42.576Z,0.30
2022-09-07T14:36:47.006Z,0.42
2022-09-07T14:37:50.842Z,0.36
2022-09-07T14:39:10.305Z,0.39
2022-09-07T14:40:00.590Z,0.44
2022-09-07T14:41:07.681Z,0.61
2022-09-07T14:42:13.116Z,0.58
2022-09-07T14:43:31.754Z,0.56
2022-09-07T14:44:38.726Z,0.40
2022-09-07T14:45:42.008Z,0.35
2022-09-07T14:46:49.610Z,0.30
2022-09-07T14:47:54.709Z,0.42
2022-09-07T14:49:03.842Z,0.46
2022-09-07T14:50:16.275Z,0.54
2022-09-07T14:51:32.756Z,0.41
2022-09-07T14:52:42.291Z,0.49
2022-09-07T14:53:41.145Z,0.58
2022-09-07T14:54:47.622Z,0.50
2022-09-07T14:55:54.122Z,0.53
2022-09-07T14:57:01.278Z,0.51
2022-09-07T14:58:16.605Z,0.46
2022-09-07T14:59:39.955Z,0.46
2022-09-07T15:00:45.964Z,0.41
2022-09-07T15:01:49.482Z,0.44
2022-09-07T15:02:54.380Z,0.50
2022-09-07T15:04:00.387Z,0.56
2022-09-07T15:05:22.981Z,0.59
2022-09-07T15:07:49.536Z,0.42
2022-09-07T15:08:52.556Z,0.42
2022-09-07T15:09:55.719Z,0.61
2022-09-07T15:11:39.223Z,0.42
2022-09-07T15:12:38.182Z,0.56
2022-09-07T15:13:35.891Z,0.30
2022-09-07T15:14:38.871Z,0.53
2022-09-07T15:15:43.628Z,0.59
2022-09-07T15:17:42.587Z,0.51
2022-09-07T15:18:04.533Z,0.57
2022-09-07T15:19:20.375Z,0.73
2022-09-07T15:20:40.466Z,0.70
2022-09-07T15:21:44.547Z,0.62
2022-09-07T15:22:48.016Z,0.70
2022-09-07T15:23:52.773Z,0.74
2022-09-07T15:24:55.850Z,0.66
2022-09-07T15:25:59.936Z,0.61
2022-09-07T15:27:06.473Z,0.59
2022-09-07T15:29:33.803Z,0.70
2022-09-07T15:30:37.291Z,0.82
2022-09-07T15:31:43.639Z,0.78
2022-09-07T15:32:45.888Z,0.54
2022-09-07T15:33:49.121Z,0.54
2022-09-07T15:34:52.425Z,0.62
2022-09-07T15:35:55.272Z,0.61
2022-09-07T15:37:00.202Z,0.64
2022-09-07T15:38:06.039Z,0.63
2022-09-07T15:40:33.268Z,0.50
2022-09-07T15:41:36.631Z,0.72
2022-09-07T15:43:44.762Z,0.66
2022-09-07T15:44:47.813Z,0.81
2022-09-07T15:45:51.369Z,0.70
2022-09-07T15:48:00.220Z,0.67
2022-09-07T15:49:03.168Z,0.84
2022-09-07T15:50:07.442Z,0.80
2022-09-07T15:52:16.972Z,0.67
2022-09-07T15:54:25.013Z,0.62
2022-09-07T15:55:27.997Z,0.76
2022-09-07T15:56:32.757Z,0.68
2022-09-07T15:57:59.305Z,0.74
2022-09-07T15:58:42.732Z,0.74
2022-09-07T15:59:46.059Z,0.83
2022-09-07T16:01:51.511Z,0.68
2022-09-07T16:01:56.135Z,0.82
2022-09-07T16:03:08.443Z,0.66
2022-09-07T16:04:05.161Z,0.96
2022-09-07T16:05:09.624Z,1.14
2022-09-07T16:06:14.102Z,1.02
2022-09-07T16:07:17.190Z,1.21
2022-09-07T16:08:32.358Z,1.29
2022-09-07T16:09:25.528Z,1.11
2022-09-07T16:10:31.222Z,0.80
2022-09-07T16:11:35.272Z,1.02
2022-09-07T16:13:47.012Z,0.96
2022-09-07T16:14:48.770Z,1.29